sensor_id;sensor_type;location;lat;lon;timestamp;P1;durP1;ratioP1;P2;durP2;ratioP2
38805;SDS011;25635;51.146;17.162;2023-04-03T00:00:37;9.60;;;3.90;;
38805;SDS011;25635;51.146;17.162;2023-04-03T00:03:19;8.10;;;2.60;;
38805;SDS011;25635;51.146;17.162;2023-04-03T00:05:46;12.20;;;2.80;;
38805;SDS011;25635;51.146;17.162;2023-04-03T00:08:13;9.80;;;2.70;;
38805;SDS011;25635;51.146;17.162;2023-04-03T00:10:40;8.20;;;2.90;;
38805;SDS011;25635;51.146;17.162;2023-04-03T00:13:07;8.70;;;2.60;;
38805;SDS011;25635;51.146;17.162;2023-04-03T00:15:34;9.50;;;2.80;;
38805;SDS011;25635;51.146;17.162;2023-04-03T00:18:03;7.50;;;2.10;;
38805;SDS011;25635;51.146;17.162;2023-04-03T00:20:31;7.60;;;2.40;;
38805;SDS011;25635;51.146;17.162;2023-04-03T00:22:59;5.40;;;2.10;;
38805;SDS011;25635;51.146;17.162;2023-04-03T00:25:27;9.30;;;3.10;;
38805;SDS011;25635;51.146;17.162;2023-04-03T00:27:53;7.20;;;2.30;;
38805;SDS011;25635;51.146;17.162;2023-04-03T00:30:20;8.30;;;2.60;;
38805;SDS011;25635;51.146;17.162;2023-04-03T00:32:48;8.60;;;2.50;;
38805;SDS011;25635;51.146;17.162;2023-04-03T00:35:16;8.90;;;2.70;;
38805;SDS011;25635;51.146;17.162;2023-04-03T00:37:44;6.00;;;2.10;;
38805;SDS011;25635;51.146;17.162;2023-04-03T00:40:11;9.30;;;3.00;;
38805;SDS011;25635;51.146;17.162;2023-04-03T00:42:40;6.70;;;2.40;;
38805;SDS011;25635;51.146;17.162;2023-04-03T00:47:59;9.30;;;2.70;;
38805;SDS011;25635;51.146;17.162;2023-04-03T00:50:31;10.90;;;2.20;;
38805;SDS011;25635;51.146;17.162;2023-04-03T00:53:01;7.70;;;2.70;;
38805;SDS011;25635;51.146;17.162;2023-04-03T00:55:29;8.00;;;2.70;;
38805;SDS011;25635;51.146;17.162;2023-04-03T00:57:56;8.60;;;2.70;;
38805;SDS011;25635;51.146;17.162;2023-04-03T01:00:23;6.90;;;2.30;;
38805;SDS011;25635;51.146;17.162;2023-04-03T01:02:51;7.00;;;2.50;;
38805;SDS011;25635;51.146;17.162;2023-04-03T01:05:18;7.90;;;2.60;;
38805;SDS011;25635;51.146;17.162;2023-04-03T01:07:46;9.40;;;2.80;;
38805;SDS011;25635;51.146;17.162;2023-04-03T01:10:18;7.40;;;2.30;;
38805;SDS011;25635;51.146;17.162;2023-04-03T01:12:48;9.50;;;2.90;;
38805;SDS011;25635;51.146;17.162;2023-04-03T01:15:21;8.60;;;2.70;;
38805;SDS011;25635;51.146;17.162;2023-04-03T01:17:53;8.00;;;2.60;;
38805;SDS011;25635;51.146;17.162;2023-04-03T01:28:11;6.40;;;2.10;;
38805;SDS011;25635;51.146;17.162;2023-04-03T01:33:33;7.70;;;2.60;;
38805;SDS011;25635;51.146;17.162;2023-04-03T01:36:00;10.30;;;2.80;;
38805;SDS011;25635;51.146;17.162;2023-04-03T01:38:27;10.20;;;2.80;;
38805;SDS011;25635;51.146;17.162;2023-04-03T01:40:54;11.50;;;2.80;;
38805;SDS011;25635;51.146;17.162;2023-04-03T01:43:22;8.10;;;3.20;;
38805;SDS011;25635;51.146;17.162;2023-04-03T01:45:52;8.00;;;2.40;;
38805;SDS011;25635;51.146;17.162;2023-04-03T01:48:26;8.60;;;2.70;;
38805;SDS011;25635;51.146;17.162;2023-04-03T01:50:53;7.70;;;2.30;;
38805;SDS011;25635;51.146;17.162;2023-04-03T01:53:20;8.20;;;2.90;;
38805;SDS011;25635;51.146;17.162;2023-04-03T01:55:51;7.40;;;2.30;;
38805;SDS011;25635;51.146;17.162;2023-04-03T01:58:17;9.60;;;2.70;;
38805;SDS011;25635;51.146;17.162;2023-04-03T02:00:44;10.40;;;2.50;;
38805;SDS011;25635;51.146;17.162;2023-04-03T02:03:11;7.90;;;2.60;;
38805;SDS011;25635;51.146;17.162;2023-04-03T02:05:38;8.30;;;2.50;;
38805;SDS011;25635;51.146;17.162;2023-04-03T02:08:06;10.80;;;2.80;;
38805;SDS011;25635;51.146;17.162;2023-04-03T02:10:32;10.40;;;2.80;;
38805;SDS011;25635;51.146;17.162;2023-04-03T02:12:59;9.30;;;2.80;;
38805;SDS011;25635;51.146;17.162;2023-04-03T02:15:26;10.80;;;2.40;;
38805;SDS011;25635;51.146;17.162;2023-04-03T02:17:52;13.20;;;3.10;;
38805;SDS011;25635;51.146;17.162;2023-04-03T02:20:19;10.00;;;2.80;;
38805;SDS011;25635;51.146;17.162;2023-04-03T02:22:46;7.70;;;2.50;;
38805;SDS011;25635;51.146;17.162;2023-04-03T02:25:13;10.00;;;3.20;;
38805;SDS011;25635;51.146;17.162;2023-04-03T02:27:39;10.50;;;3.00;;
38805;SDS011;25635;51.146;17.162;2023-04-03T02:30:06;7.40;;;2.70;;
38805;SDS011;25635;51.146;17.162;2023-04-03T02:32:35;8.20;;;2.30;;
38805;SDS011;25635;51.146;17.162;2023-04-03T02:35:02;10.40;;;2.70;;
38805;SDS011;25635;51.146;17.162;2023-04-03T02:37:29;7.60;;;2.30;;
38805;SDS011;25635;51.146;17.162;2023-04-03T02:39:56;9.80;;;2.40;;
38805;SDS011;25635;51.146;17.162;2023-04-03T02:42:22;10.40;;;2.60;;
38805;SDS011;25635;51.146;17.162;2023-04-03T02:44:49;9.00;;;2.60;;
38805;SDS011;25635;51.146;17.162;2023-04-03T02:47:16;9.40;;;2.30;;
38805;SDS011;25635;51.146;17.162;2023-04-03T02:49:42;11.10;;;2.60;;
38805;SDS011;25635;51.146;17.162;2023-04-03T02:52:14;7.00;;;2.70;;
38805;SDS011;25635;51.146;17.162;2023-04-03T02:54:41;7.50;;;2.70;;
38805;SDS011;25635;51.146;17.162;2023-04-03T02:57:07;9.30;;;2.60;;
38805;SDS011;25635;51.146;17.162;2023-04-03T02:59:35;5.70;;;2.20;;
38805;SDS011;25635;51.146;17.162;2023-04-03T03:02:05;7.50;;;2.60;;
38805;SDS011;25635;51.146;17.162;2023-04-03T03:04:31;9.90;;;2.50;;
38805;SDS011;25635;51.146;17.162;2023-04-03T03:06:58;7.00;;;2.70;;
38805;SDS011;25635;51.146;17.162;2023-04-03T03:09:25;7.40;;;2.20;;
38805;SDS011;25635;51.146;17.162;2023-04-03T03:11:53;11.30;;;3.20;;
38805;SDS011;25635;51.146;17.162;2023-04-03T03:14:19;8.10;;;2.20;;
38805;SDS011;25635;51.146;17.162;2023-04-03T03:16:46;6.80;;;2.80;;
38805;SDS011;25635;51.146;17.162;2023-04-03T03:19:12;9.80;;;2.70;;
38805;SDS011;25635;51.146;17.162;2023-04-03T03:21:39;7.90;;;2.60;;
38805;SDS011;25635;51.146;17.162;2023-04-03T03:24:06;7.60;;;2.40;;
38805;SDS011;25635;51.146;17.162;2023-04-03T03:26:33;9.20;;;2.30;;
38805;SDS011;25635;51.146;17.162;2023-04-03T03:28:59;8.40;;;2.50;;
38805;SDS011;25635;51.146;17.162;2023-04-03T03:31:26;10.90;;;3.00;;
38805;SDS011;25635;51.146;17.162;2023-04-03T03:33:53;9.90;;;2.60;;
38805;SDS011;25635;51.146;17.162;2023-04-03T03:36:19;6.60;;;2.40;;
38805;SDS011;25635;51.146;17.162;2023-04-03T03:38:46;9.50;;;2.90;;
38805;SDS011;25635;51.146;17.162;2023-04-03T03:41:13;10.40;;;3.00;;
38805;SDS011;25635;51.146;17.162;2023-04-03T03:43:39;9.50;;;2.40;;
38805;SDS011;25635;51.146;17.162;2023-04-03T03:46:06;9.30;;;2.80;;
38805;SDS011;25635;51.146;17.162;2023-04-03T03:48:32;9.30;;;2.70;;
38805;SDS011;25635;51.146;17.162;2023-04-03T03:50:59;9.10;;;3.70;;
38805;SDS011;25635;51.146;17.162;2023-04-03T03:53:27;8.50;;;3.20;;
38805;SDS011;25635;51.146;17.162;2023-04-03T03:55:53;9.70;;;2.80;;
38805;SDS011;25635;51.146;17.162;2023-04-03T03:58:20;9.20;;;3.50;;
38805;SDS011;25635;51.146;17.162;2023-04-03T04:00:46;8.20;;;3.00;;
38805;SDS011;25635;51.146;17.162;2023-04-03T04:03:13;7.10;;;2.80;;
38805;SDS011;25635;51.146;17.162;2023-04-03T04:05:39;11.10;;;2.90;;
38805;SDS011;25635;51.146;17.162;2023-04-03T04:08:12;12.90;;;3.20;;
38805;SDS011;25635;51.146;17.162;2023-04-03T04:10:44;11.90;;;3.00;;
38805;SDS011;25635;51.146;17.162;2023-04-03T04:13:10;8.30;;;2.90;;
38805;SDS011;25635;51.146;17.162;2023-04-03T04:15:37;9.20;;;3.20;;
38805;SDS011;25635;51.146;17.162;2023-04-03T04:18:03;13.00;;;3.70;;
38805;SDS011;25635;51.146;17.162;2023-04-03T04:20:30;12.00;;;3.60;;
38805;SDS011;25635;51.146;17.162;2023-04-03T04:22:57;8.80;;;2.80;;
38805;SDS011;25635;51.146;17.162;2023-04-03T04:25:24;8.00;;;3.20;;
38805;SDS011;25635;51.146;17.162;2023-04-03T04:27:50;6.70;;;2.40;;
38805;SDS011;25635;51.146;17.162;2023-04-03T04:30:17;7.50;;;2.70;;
38805;SDS011;25635;51.146;17.162;2023-04-03T04:32:43;9.80;;;3.10;;
38805;SDS011;25635;51.146;17.162;2023-04-03T04:35:10;8.90;;;2.90;;
38805;SDS011;25635;51.146;17.162;2023-04-03T04:37:37;8.90;;;3.00;;
38805;SDS011;25635;51.146;17.162;2023-04-03T04:40:04;9.90;;;3.10;;
38805;SDS011;25635;51.146;17.162;2023-04-03T04:42:32;6.90;;;2.40;;
38805;SDS011;25635;51.146;17.162;2023-04-03T04:44:58;7.50;;;2.50;;
38805;SDS011;25635;51.146;17.162;2023-04-03T04:47:25;9.30;;;2.60;;
38805;SDS011;25635;51.146;17.162;2023-04-03T04:49:55;6.90;;;2.60;;
38805;SDS011;25635;51.146;17.162;2023-04-03T04:52:21;8.90;;;2.70;;
38805;SDS011;25635;51.146;17.162;2023-04-03T04:54:48;9.70;;;2.80;;
38805;SDS011;25635;51.146;17.162;2023-04-03T04:57:15;8.90;;;2.70;;
38805;SDS011;25635;51.146;17.162;2023-04-03T04:59:43;9.80;;;3.40;;
38805;SDS011;25635;51.146;17.162;2023-04-03T05:02:09;8.60;;;2.90;;
38805;SDS011;25635;51.146;17.162;2023-04-03T05:04:36;9.20;;;2.30;;
38805;SDS011;25635;51.146;17.162;2023-04-03T05:07:02;9.50;;;2.60;;
38805;SDS011;25635;51.146;17.162;2023-04-03T05:09:29;8.20;;;2.40;;
38805;SDS011;25635;51.146;17.162;2023-04-03T05:11:56;7.60;;;2.90;;
38805;SDS011;25635;51.146;17.162;2023-04-03T05:14:23;9.60;;;2.90;;
38805;SDS011;25635;51.146;17.162;2023-04-03T05:16:49;12.00;;;3.80;;
38805;SDS011;25635;51.146;17.162;2023-04-03T05:19:20;10.90;;;4.00;;
38805;SDS011;25635;51.146;17.162;2023-04-03T05:21:47;8.20;;;2.90;;
38805;SDS011;25635;51.146;17.162;2023-04-03T05:24:14;7.30;;;3.10;;
38805;SDS011;25635;51.146;17.162;2023-04-03T05:26:42;7.60;;;2.50;;
38805;SDS011;25635;51.146;17.162;2023-04-03T05:29:09;9.50;;;2.60;;
38805;SDS011;25635;51.146;17.162;2023-04-03T05:31:36;10.60;;;3.40;;
38805;SDS011;25635;51.146;17.162;2023-04-03T05:34:03;11.40;;;3.10;;
38805;SDS011;25635;51.146;17.162;2023-04-03T05:36:29;8.30;;;2.80;;
38805;SDS011;25635;51.146;17.162;2023-04-03T05:38:56;10.30;;;2.90;;
38805;SDS011;25635;51.146;17.162;2023-04-03T05:41:23;6.10;;;2.40;;
38805;SDS011;25635;51.146;17.162;2023-04-03T05:43:49;7.70;;;2.70;;
38805;SDS011;25635;51.146;17.162;2023-04-03T05:46:17;6.90;;;2.70;;
38805;SDS011;25635;51.146;17.162;2023-04-03T05:48:45;10.10;;;3.20;;
38805;SDS011;25635;51.146;17.162;2023-04-03T05:51:22;7.20;;;2.80;;
38805;SDS011;25635;51.146;17.162;2023-04-03T05:54:06;8.00;;;2.60;;
38805;SDS011;25635;51.146;17.162;2023-04-03T05:56:43;8.90;;;2.90;;
38805;SDS011;25635;51.146;17.162;2023-04-03T05:59:10;8.30;;;2.90;;
38805;SDS011;25635;51.146;17.162;2023-04-03T06:01:37;6.40;;;2.50;;
38805;SDS011;25635;51.146;17.162;2023-04-03T06:04:03;7.30;;;2.70;;
38805;SDS011;25635;51.146;17.162;2023-04-03T06:06:43;8.70;;;2.70;;
38805;SDS011;25635;51.146;17.162;2023-04-03T06:09:11;6.90;;;2.70;;
38805;SDS011;25635;51.146;17.162;2023-04-03T06:11:38;11.60;;;3.40;;
38805;SDS011;25635;51.146;17.162;2023-04-03T06:14:05;9.90;;;3.40;;
38805;SDS011;25635;51.146;17.162;2023-04-03T06:16:32;7.40;;;2.50;;
38805;SDS011;25635;51.146;17.162;2023-04-03T06:19:00;10.70;;;3.10;;
38805;SDS011;25635;51.146;17.162;2023-04-03T06:21:27;10.10;;;3.60;;
38805;SDS011;25635;51.146;17.162;2023-04-03T06:23:53;9.60;;;2.70;;
38805;SDS011;25635;51.146;17.162;2023-04-03T06:26:20;6.30;;;2.30;;
38805;SDS011;25635;51.146;17.162;2023-04-03T06:28:47;8.10;;;3.10;;
38805;SDS011;25635;51.146;17.162;2023-04-03T06:31:13;8.00;;;2.80;;
38805;SDS011;25635;51.146;17.162;2023-04-03T06:33:40;11.30;;;3.20;;
38805;SDS011;25635;51.146;17.162;2023-04-03T06:36:07;8.70;;;3.00;;
38805;SDS011;25635;51.146;17.162;2023-04-03T06:38:36;11.30;;;3.30;;
38805;SDS011;25635;51.146;17.162;2023-04-03T06:41:03;6.80;;;2.60;;
38805;SDS011;25635;51.146;17.162;2023-04-03T06:43:30;10.70;;;4.30;;
38805;SDS011;25635;51.146;17.162;2023-04-03T06:45:57;7.80;;;2.70;;
38805;SDS011;25635;51.146;17.162;2023-04-03T06:48:24;8.60;;;3.10;;
38805;SDS011;25635;51.146;17.162;2023-04-03T06:50:51;8.50;;;3.00;;
38805;SDS011;25635;51.146;17.162;2023-04-03T06:53:19;7.70;;;2.80;;
38805;SDS011;25635;51.146;17.162;2023-04-03T06:55:45;10.10;;;3.40;;
38805;SDS011;25635;51.146;17.162;2023-04-03T06:58:13;8.10;;;3.00;;
38805;SDS011;25635;51.146;17.162;2023-04-03T07:00:41;10.20;;;3.20;;
38805;SDS011;25635;51.146;17.162;2023-04-03T07:03:08;9.60;;;3.40;;
38805;SDS011;25635;51.146;17.162;2023-04-03T07:05:34;9.60;;;3.50;;
38805;SDS011;25635;51.146;17.162;2023-04-03T07:08:01;10.90;;;4.00;;
38805;SDS011;25635;51.146;17.162;2023-04-03T07:10:28;7.70;;;3.10;;
38805;SDS011;25635;51.146;17.162;2023-04-03T07:12:55;6.80;;;2.80;;
38805;SDS011;25635;51.146;17.162;2023-04-03T07:15:24;6.50;;;2.50;;
38805;SDS011;25635;51.146;17.162;2023-04-03T07:17:51;8.30;;;2.80;;
38805;SDS011;25635;51.146;17.162;2023-04-03T07:20:18;6.80;;;2.90;;
38805;SDS011;25635;51.146;17.162;2023-04-03T07:22:44;8.70;;;3.00;;
38805;SDS011;25635;51.146;17.162;2023-04-03T07:25:11;8.80;;;2.90;;
38805;SDS011;25635;51.146;17.162;2023-04-03T07:27:38;8.40;;;3.00;;
38805;SDS011;25635;51.146;17.162;2023-04-03T07:30:05;8.70;;;2.70;;
38805;SDS011;25635;51.146;17.162;2023-04-03T07:32:33;7.50;;;2.90;;
38805;SDS011;25635;51.146;17.162;2023-04-03T07:34:59;10.20;;;3.60;;
38805;SDS011;25635;51.146;17.162;2023-04-03T07:37:26;7.50;;;2.70;;
38805;SDS011;25635;51.146;17.162;2023-04-03T07:39:57;11.20;;;3.40;;
38805;SDS011;25635;51.146;17.162;2023-04-03T07:42:33;7.60;;;2.90;;
38805;SDS011;25635;51.146;17.162;2023-04-03T07:45:01;8.70;;;3.20;;
38805;SDS011;25635;51.146;17.162;2023-04-03T07:47:28;7.80;;;3.10;;
38805;SDS011;25635;51.146;17.162;2023-04-03T07:49:55;8.10;;;2.80;;
38805;SDS011;25635;51.146;17.162;2023-04-03T07:52:23;8.60;;;2.90;;
38805;SDS011;25635;51.146;17.162;2023-04-03T07:54:50;7.20;;;2.50;;
38805;SDS011;25635;51.146;17.162;2023-04-03T07:57:17;8.90;;;3.30;;
38805;SDS011;25635;51.146;17.162;2023-04-03T07:59:43;8.10;;;3.20;;
38805;SDS011;25635;51.146;17.162;2023-04-03T08:02:11;9.00;;;3.10;;
38805;SDS011;25635;51.146;17.162;2023-04-03T08:04:38;6.90;;;2.50;;
38805;SDS011;25635;51.146;17.162;2023-04-03T08:07:05;8.70;;;3.00;;
38805;SDS011;25635;51.146;17.162;2023-04-03T08:09:32;9.30;;;3.20;;
38805;SDS011;25635;51.146;17.162;2023-04-03T08:11:58;7.90;;;3.00;;
38805;SDS011;25635;51.146;17.162;2023-04-03T08:14:25;9.50;;;3.70;;
38805;SDS011;25635;51.146;17.162;2023-04-03T08:16:53;8.10;;;2.70;;
38805;SDS011;25635;51.146;17.162;2023-04-03T08:19:26;7.00;;;2.80;;
38805;SDS011;25635;51.146;17.162;2023-04-03T08:21:59;7.90;;;2.80;;
38805;SDS011;25635;51.146;17.162;2023-04-03T08:24:32;8.00;;;3.00;;
38805;SDS011;25635;51.146;17.162;2023-04-03T08:27:03;5.50;;;2.40;;
38805;SDS011;25635;51.146;17.162;2023-04-03T08:29:30;7.10;;;2.60;;
38805;SDS011;25635;51.146;17.162;2023-04-03T08:31:57;6.60;;;2.30;;
38805;SDS011;25635;51.146;17.162;2023-04-03T08:34:24;7.80;;;2.60;;
38805;SDS011;25635;51.146;17.162;2023-04-03T08:36:50;9.90;;;2.50;;
38805;SDS011;25635;51.146;17.162;2023-04-03T08:39:17;5.40;;;2.20;;
38805;SDS011;25635;51.146;17.162;2023-04-03T08:41:44;8.30;;;2.40;;
38805;SDS011;25635;51.146;17.162;2023-04-03T08:44:33;7.60;;;2.30;;
38805;SDS011;25635;51.146;17.162;2023-04-03T08:47:22;8.30;;;2.90;;
38805;SDS011;25635;51.146;17.162;2023-04-03T08:49:56;7.90;;;2.60;;
38805;SDS011;25635;51.146;17.162;2023-04-03T08:55:19;6.00;;;2.20;;
38805;SDS011;25635;51.146;17.162;2023-04-03T08:57:47;6.50;;;2.00;;
38805;SDS011;25635;51.146;17.162;2023-04-03T09:00:18;6.30;;;2.00;;
38805;SDS011;25635;51.146;17.162;2023-04-03T09:02:48;6.60;;;2.30;;
38805;SDS011;25635;51.146;17.162;2023-04-03T09:05:20;5.90;;;2.50;;
38805;SDS011;25635;51.146;17.162;2023-04-03T09:08:14;7.40;;;2.40;;
38805;SDS011;25635;51.146;17.162;2023-04-03T09:11:16;7.80;;;2.30;;
38805;SDS011;25635;51.146;17.162;2023-04-03T09:16:31;8.40;;;2.20;;
38805;SDS011;25635;51.146;17.162;2023-04-03T09:22:14;7.50;;;2.90;;
38805;SDS011;25635;51.146;17.162;2023-04-03T09:27:13;6.10;;;1.90;;
38805;SDS011;25635;51.146;17.162;2023-04-03T09:29:41;5.40;;;1.80;;
38805;SDS011;25635;51.146;17.162;2023-04-03T09:32:18;6.50;;;1.80;;
38805;SDS011;25635;51.146;17.162;2023-04-03T09:34:53;5.80;;;2.10;;
38805;SDS011;25635;51.146;17.162;2023-04-03T09:42:52;6.90;;;2.10;;
38805;SDS011;25635;51.146;17.162;2023-04-03T09:45:25;8.10;;;2.00;;
38805;SDS011;25635;51.146;17.162;2023-04-03T09:48:08;7.70;;;2.50;;
38805;SDS011;25635;51.146;17.162;2023-04-03T09:56:03;6.50;;;1.90;;
38805;SDS011;25635;51.146;17.162;2023-04-03T09:59:25;7.50;;;2.10;;
38805;SDS011;25635;51.146;17.162;2023-04-03T10:01:37;6.40;;;2.20;;
38805;SDS011;25635;51.146;17.162;2023-04-03T10:06:47;7.50;;;2.30;;
38805;SDS011;25635;51.146;17.162;2023-04-03T10:09:22;6.50;;;1.90;;
38805;SDS011;25635;51.146;17.162;2023-04-03T10:14:38;7.80;;;2.10;;
38805;SDS011;25635;51.146;17.162;2023-04-03T10:28:09;5.40;;;2.00;;
38805;SDS011;25635;51.146;17.162;2023-04-03T10:33:59;7.10;;;1.90;;
38805;SDS011;25635;51.146;17.162;2023-04-03T10:41:55;7.40;;;2.00;;
38805;SDS011;25635;51.146;17.162;2023-04-03T10:49:54;6.40;;;1.60;;
38805;SDS011;25635;51.146;17.162;2023-04-03T10:52:37;5.70;;;2.00;;
38805;SDS011;25635;51.146;17.162;2023-04-03T10:57:39;5.20;;;1.80;;
38805;SDS011;25635;51.146;17.162;2023-04-03T11:00:13;5.50;;;1.60;;
38805;SDS011;25635;51.146;17.162;2023-04-03T11:03:01;6.20;;;1.70;;
38805;SDS011;25635;51.146;17.162;2023-04-03T11:11:03;6.10;;;1.60;;
38805;SDS011;25635;51.146;17.162;2023-04-03T11:13:48;5.70;;;1.90;;
38805;SDS011;25635;51.146;17.162;2023-04-03T11:16:21;6.10;;;1.80;;
38805;SDS011;25635;51.146;17.162;2023-04-03T11:18:52;5.80;;;1.80;;
38805;SDS011;25635;51.146;17.162;2023-04-03T11:21:37;6.50;;;1.70;;
38805;SDS011;25635;51.146;17.162;2023-04-03T11:24:17;6.40;;;1.90;;
38805;SDS011;25635;51.146;17.162;2023-04-03T11:26:50;6.10;;;1.90;;
38805;SDS011;25635;51.146;17.162;2023-04-03T11:29:19;4.80;;;1.70;;
38805;SDS011;25635;51.146;17.162;2023-04-03T11:34:49;5.30;;;1.70;;
38805;SDS011;25635;51.146;17.162;2023-04-03T11:37:24;4.80;;;1.60;;
38805;SDS011;25635;51.146;17.162;2023-04-03T11:39:54;5.30;;;1.80;;
38805;SDS011;25635;51.146;17.162;2023-04-03T11:42:34;6.40;;;2.00;;
38805;SDS011;25635;51.146;17.162;2023-04-03T11:45:16;6.10;;;2.20;;
38805;SDS011;25635;51.146;17.162;2023-04-03T11:48:04;5.20;;;2.10;;
38805;SDS011;25635;51.146;17.162;2023-04-03T11:50:51;6.40;;;2.10;;
38805;SDS011;25635;51.146;17.162;2023-04-03T12:00:50;5.60;;;1.70;;
38805;SDS011;25635;51.146;17.162;2023-04-03T12:06:41;6.10;;;2.00;;
38805;SDS011;25635;51.146;17.162;2023-04-03T12:08:47;5.20;;;1.90;;
38805;SDS011;25635;51.146;17.162;2023-04-03T12:11:31;5.40;;;2.00;;
38805;SDS011;25635;51.146;17.162;2023-04-03T12:21:21;5.60;;;1.90;;
38805;SDS011;25635;51.146;17.162;2023-04-03T12:26:50;6.20;;;2.10;;
38805;SDS011;25635;51.146;17.162;2023-04-03T12:46:04;6.10;;;2.00;;
38805;SDS011;25635;51.146;17.162;2023-04-03T12:48:32;4.90;;;1.90;;
38805;SDS011;25635;51.146;17.162;2023-04-03T12:51:04;7.70;;;2.00;;
38805;SDS011;25635;51.146;17.162;2023-04-03T12:53:33;8.90;;;2.90;;
38805;SDS011;25635;51.146;17.162;2023-04-03T12:58:50;7.60;;;2.10;;
38805;SDS011;25635;51.146;17.162;2023-04-03T13:01:19;5.50;;;1.80;;
38805;SDS011;25635;51.146;17.162;2023-04-03T13:03:56;5.80;;;2.10;;
38805;SDS011;25635;51.146;17.162;2023-04-03T13:06:26;5.80;;;2.10;;
38805;SDS011;25635;51.146;17.162;2023-04-03T13:08:57;5.30;;;1.90;;
38805;SDS011;25635;51.146;17.162;2023-04-03T13:11:32;4.40;;;1.80;;
38805;SDS011;25635;51.146;17.162;2023-04-03T13:14:04;7.40;;;2.20;;
38805;SDS011;25635;51.146;17.162;2023-04-03T13:16:41;4.80;;;1.90;;
38805;SDS011;25635;51.146;17.162;2023-04-03T13:19:15;5.70;;;2.20;;
38805;SDS011;25635;51.146;17.162;2023-04-03T13:21:43;5.60;;;2.10;;
38805;SDS011;25635;51.146;17.162;2023-04-03T13:24:11;5.10;;;2.00;;
38805;SDS011;25635;51.146;17.162;2023-04-03T13:26:38;5.40;;;2.10;;
38805;SDS011;25635;51.146;17.162;2023-04-03T13:29:07;4.90;;;2.20;;
38805;SDS011;25635;51.146;17.162;2023-04-03T13:31:45;5.80;;;1.80;;
38805;SDS011;25635;51.146;17.162;2023-04-03T13:34:12;5.20;;;2.30;;
38805;SDS011;25635;51.146;17.162;2023-04-03T13:36:54;5.80;;;2.50;;
38805;SDS011;25635;51.146;17.162;2023-04-03T13:39:25;8.30;;;2.20;;
38805;SDS011;25635;51.146;17.162;2023-04-03T13:42:00;5.10;;;2.10;;
38805;SDS011;25635;51.146;17.162;2023-04-03T13:44:40;4.70;;;1.80;;
38805;SDS011;25635;51.146;17.162;2023-04-03T13:49:38;7.10;;;2.50;;
38805;SDS011;25635;51.146;17.162;2023-04-03T13:54:59;5.40;;;2.00;;
38805;SDS011;25635;51.146;17.162;2023-04-03T13:57:28;5.00;;;2.00;;
38805;SDS011;25635;51.146;17.162;2023-04-03T13:59:55;5.10;;;2.20;;
38805;SDS011;25635;51.146;17.162;2023-04-03T14:02:32;6.30;;;2.00;;
38805;SDS011;25635;51.146;17.162;2023-04-03T14:05:00;6.20;;;2.00;;
38805;SDS011;25635;51.146;17.162;2023-04-03T14:07:30;6.00;;;2.10;;
38805;SDS011;25635;51.146;17.162;2023-04-03T14:09:57;5.30;;;2.00;;
38805;SDS011;25635;51.146;17.162;2023-04-03T14:12:30;5.30;;;2.10;;
38805;SDS011;25635;51.146;17.162;2023-04-03T14:15:00;6.10;;;2.00;;
38805;SDS011;25635;51.146;17.162;2023-04-03T14:17:29;5.70;;;2.50;;
38805;SDS011;25635;51.146;17.162;2023-04-03T14:19:56;5.90;;;2.20;;
38805;SDS011;25635;51.146;17.162;2023-04-03T14:22:24;4.80;;;1.70;;
38805;SDS011;25635;51.146;17.162;2023-04-03T14:24:54;8.80;;;2.10;;
38805;SDS011;25635;51.146;17.162;2023-04-03T14:27:27;5.60;;;2.10;;
38805;SDS011;25635;51.146;17.162;2023-04-03T14:29:59;6.10;;;2.00;;
38805;SDS011;25635;51.146;17.162;2023-04-03T14:32:26;5.80;;;1.90;;
38805;SDS011;25635;51.146;17.162;2023-04-03T14:34:54;6.30;;;2.30;;
38805;SDS011;25635;51.146;17.162;2023-04-03T14:37:22;5.70;;;2.00;;
38805;SDS011;25635;51.146;17.162;2023-04-03T14:39:51;5.50;;;2.10;;
38805;SDS011;25635;51.146;17.162;2023-04-03T14:42:23;6.80;;;2.20;;
38805;SDS011;25635;51.146;17.162;2023-04-03T14:44:52;6.00;;;2.10;;
38805;SDS011;25635;51.146;17.162;2023-04-03T14:47:20;6.90;;;2.10;;
38805;SDS011;25635;51.146;17.162;2023-04-03T14:49:49;5.80;;;2.10;;
38805;SDS011;25635;51.146;17.162;2023-04-03T14:52:18;5.90;;;2.20;;
38805;SDS011;25635;51.146;17.162;2023-04-03T14:54:56;5.20;;;2.00;;
38805;SDS011;25635;51.146;17.162;2023-04-03T14:57:24;5.10;;;2.10;;
38805;SDS011;25635;51.146;17.162;2023-04-03T14:59:52;5.40;;;2.30;;
38805;SDS011;25635;51.146;17.162;2023-04-03T15:05:00;5.70;;;2.10;;
38805;SDS011;25635;51.146;17.162;2023-04-03T15:07:31;5.40;;;2.60;;
38805;SDS011;25635;51.146;17.162;2023-04-03T15:10:02;4.50;;;1.80;;
38805;SDS011;25635;51.146;17.162;2023-04-03T15:12:40;5.40;;;2.00;;
38805;SDS011;25635;51.146;17.162;2023-04-03T15:15:07;6.20;;;2.20;;
38805;SDS011;25635;51.146;17.162;2023-04-03T15:17:34;5.60;;;2.50;;
38805;SDS011;25635;51.146;17.162;2023-04-03T15:20:03;5.30;;;2.60;;
38805;SDS011;25635;51.146;17.162;2023-04-03T15:22:37;6.60;;;2.60;;
38805;SDS011;25635;51.146;17.162;2023-04-03T15:25:04;6.30;;;3.10;;
38805;SDS011;25635;51.146;17.162;2023-04-03T15:27:32;7.10;;;2.50;;
38805;SDS011;25635;51.146;17.162;2023-04-03T15:29:59;5.00;;;2.10;;
38805;SDS011;25635;51.146;17.162;2023-04-03T15:32:26;5.20;;;2.30;;
38805;SDS011;25635;51.146;17.162;2023-04-03T15:34:53;7.20;;;3.20;;
38805;SDS011;25635;51.146;17.162;2023-04-03T15:37:20;9.70;;;2.80;;
38805;SDS011;25635;51.146;17.162;2023-04-03T15:39:47;9.10;;;3.50;;
38805;SDS011;25635;51.146;17.162;2023-04-03T15:42:13;9.00;;;4.00;;
38805;SDS011;25635;51.146;17.162;2023-04-03T15:44:40;7.20;;;3.10;;
38805;SDS011;25635;51.146;17.162;2023-04-03T15:47:07;9.00;;;3.40;;
38805;SDS011;25635;51.146;17.162;2023-04-03T15:49:33;7.40;;;2.80;;
38805;SDS011;25635;51.146;17.162;2023-04-03T15:52:01;6.70;;;2.80;;
38805;SDS011;25635;51.146;17.162;2023-04-03T15:54:27;9.30;;;2.80;;
38805;SDS011;25635;51.146;17.162;2023-04-03T15:56:55;8.00;;;2.50;;
38805;SDS011;25635;51.146;17.162;2023-04-03T15:59:22;6.80;;;2.20;;
38805;SDS011;25635;51.146;17.162;2023-04-03T16:01:49;5.60;;;2.00;;
38805;SDS011;25635;51.146;17.162;2023-04-03T16:04:16;7.20;;;2.90;;
38805;SDS011;25635;51.146;17.162;2023-04-03T16:06:44;7.20;;;3.20;;
38805;SDS011;25635;51.146;17.162;2023-04-03T16:09:10;6.10;;;3.00;;
38805;SDS011;25635;51.146;17.162;2023-04-03T16:11:37;9.30;;;3.30;;
38805;SDS011;25635;51.146;17.162;2023-04-03T16:14:07;7.80;;;3.40;;
38805;SDS011;25635;51.146;17.162;2023-04-03T16:16:34;8.20;;;2.80;;
38805;SDS011;25635;51.146;17.162;2023-04-03T16:19:03;6.80;;;2.60;;
38805;SDS011;25635;51.146;17.162;2023-04-03T16:21:31;6.10;;;2.80;;
38805;SDS011;25635;51.146;17.162;2023-04-03T16:44:28;10.20;;;3.80;;
38805;SDS011;25635;51.146;17.162;2023-04-03T16:46:55;10.90;;;4.70;;
38805;SDS011;25635;51.146;17.162;2023-04-03T16:49:21;8.50;;;4.00;;
38805;SDS011;25635;51.146;17.162;2023-04-03T16:51:48;9.60;;;3.70;;
38805;SDS011;25635;51.146;17.162;2023-04-03T17:02:30;8.00;;;3.20;;
38805;SDS011;25635;51.146;17.162;2023-04-03T17:10:19;8.50;;;2.90;;
38805;SDS011;25635;51.146;17.162;2023-04-03T17:55:43;14.60;;;6.40;;
38805;SDS011;25635;51.146;17.162;2023-04-03T18:02:40;10.50;;;3.60;;
38805;SDS011;25635;51.146;17.162;2023-04-03T18:06:10;11.30;;;4.20;;
38805;SDS011;25635;51.146;17.162;2023-04-03T18:12:50;9.40;;;3.60;;
38805;SDS011;25635;51.146;17.162;2023-04-03T18:22:47;7.40;;;3.60;;
38805;SDS011;25635;51.146;17.162;2023-04-03T18:29:02;9.90;;;3.40;;